createdAt,value
2017-09-23T00:00:07.680Z,10.40
2017-09-23T00:02:35.201Z,11.07
2017-09-23T00:05:02.700Z,10.90
2017-09-23T00:07:30.215Z,9.80
2017-09-23T00:09:57.810Z,9.90
2017-09-23T00:12:25.331Z,10.27
2017-09-23T00:14:52.843Z,10.70
2017-09-23T00:17:20.360Z,11.87
2017-09-23T00:19:47.876Z,11.13
2017-09-23T00:22:15.401Z,10.10
2017-09-23T00:24:43.218Z,11.07
2017-09-23T00:27:10.732Z,10.50
2017-09-23T00:29:38.262Z,10.60
2017-09-23T00:32:05.771Z,10.90
2017-09-23T00:34:33.601Z,10.50
2017-09-23T00:37:01.359Z,10.93
2017-09-23T00:39:29.124Z,10.80
2017-09-23T00:41:57.404Z,11.57
2017-09-23T00:44:24.970Z,11.50
2017-09-23T00:46:52.580Z,11.50
2017-09-23T00:49:20.093Z,12.10
2017-09-23T00:51:47.600Z,10.97
2017-09-23T00:54:15.416Z,12.17
2017-09-23T00:56:42.926Z,11.50
2017-09-23T00:59:10.444Z,11.10
2017-09-23T01:01:38.077Z,10.43
2017-09-23T01:04:05.841Z,11.50
2017-09-23T01:06:33.616Z,10.47
2017-09-23T01:09:01.541Z,11.10
2017-09-23T01:11:29.037Z,12.30
2017-09-23T01:13:56.582Z,12.77
2017-09-23T01:16:24.935Z,12.13
2017-09-23T01:18:52.467Z,13.10
2017-09-23T01:21:19.980Z,12.33
2017-09-23T01:23:47.492Z,11.50
2017-09-23T01:26:16.269Z,11.20
2017-09-23T01:28:43.824Z,11.30
2017-09-23T01:31:11.359Z,11.30
2017-09-23T01:33:39.827Z,12.47
2017-09-23T01:36:07.363Z,12.00
2017-09-23T01:38:34.860Z,12.50
2017-09-23T01:41:02.385Z,11.80
2017-09-23T01:43:30.075Z,11.07
2017-09-23T01:45:57.591Z,11.23
2017-09-23T01:48:25.106Z,11.67
2017-09-23T01:50:53.661Z,12.07
2017-09-23T01:53:21.181Z,11.80
2017-09-23T01:55:48.879Z,12.23
2017-09-23T01:58:16.420Z,11.50
2017-09-23T02:00:44.092Z,10.97
2017-09-23T02:03:11.636Z,11.50
2017-09-23T02:05:39.131Z,9.60
2017-09-23T02:08:06.652Z,9.97
2017-09-23T02:10:34.228Z,10.73
2017-09-23T02:13:01.996Z,11.10
2017-09-23T02:15:29.504Z,10.83
2017-09-23T02:17:57.030Z,10.90
2017-09-23T02:20:24.633Z,10.50
2017-09-23T02:22:52.432Z,11.43
2017-09-23T02:25:19.941Z,10.23
2017-09-23T02:27:47.576Z,10.37
2017-09-23T02:30:15.093Z,10.10
2017-09-23T02:32:42.656Z,10.17
2017-09-23T02:35:10.320Z,10.53
2017-09-23T02:37:37.832Z,10.50
2017-09-23T02:40:05.352Z,10.73
2017-09-23T02:42:33.440Z,10.33
2017-09-23T02:45:00.951Z,9.43
2017-09-23T02:47:28.528Z,11.70
2017-09-23T02:49:56.289Z,10.10
2017-09-23T02:52:24.058Z,11.20
2017-09-23T02:54:51.602Z,11.97
2017-09-23T02:57:19.248Z,10.80
2017-09-23T02:59:46.766Z,11.00
2017-09-23T03:02:14.471Z,10.97
2017-09-23T03:04:41.975Z,10.67
2017-09-23T03:07:09.716Z,11.27
2017-09-23T03:09:37.481Z,11.57
2017-09-23T03:12:05.012Z,11.80
2017-09-23T03:14:32.659Z,12.37
2017-09-23T03:17:00.174Z,10.60
2017-09-23T03:19:27.790Z,11.10
2017-09-23T03:21:55.374Z,11.63
2017-09-23T03:24:22.889Z,11.40
2017-09-23T03:26:50.565Z,10.90
2017-09-23T03:29:18.078Z,10.70
2017-09-23T03:31:45.619Z,11.70
2017-09-23T03:34:13.252Z,11.73
2017-09-23T03:36:41.844Z,12.37
2017-09-23T03:39:09.593Z,11.40
2017-09-23T03:41:37.188Z,11.40
2017-09-23T03:44:04.712Z,11.97
2017-09-23T03:46:32.219Z,11.93
2017-09-23T03:48:59.726Z,11.60
2017-09-23T03:51:27.312Z,12.30
2017-09-23T03:53:54.874Z,11.80
2017-09-23T03:56:22.505Z,12.33
2017-09-23T03:58:50.481Z,12.57
2017-09-23T04:01:17.972Z,12.03
2017-09-23T04:03:45.501Z,12.83
2017-09-23T04:06:13.228Z,13.40
2017-09-23T04:08:40.769Z,13.10
2017-09-23T04:11:08.267Z,11.80
2017-09-23T04:13:35.929Z,12.23
2017-09-23T04:16:03.504Z,12.50
2017-09-23T04:18:31.175Z,12.30
2017-09-23T04:20:58.952Z,15.00
2017-09-23T04:23:26.473Z,13.87
2017-09-23T04:25:54.133Z,14.37
2017-09-23T04:28:21.652Z,13.20
2017-09-23T04:30:49.993Z,12.50
2017-09-23T04:33:17.507Z,13.37
2017-09-23T04:35:45.212Z,13.37
2017-09-23T04:38:12.976Z,12.70
2017-09-23T04:40:40.737Z,13.57
2017-09-23T04:43:08.478Z,13.20
2017-09-23T04:45:35.977Z,12.70
2017-09-23T04:48:03.811Z,13.23
2017-09-23T04:50:31.487Z,12.83
2017-09-23T04:52:58.996Z,12.93
2017-09-23T04:55:26.712Z,12.67
2017-09-23T04:57:54.216Z,13.33
2017-09-23T05:00:21.737Z,12.83
2017-09-23T05:02:49.314Z,13.53
2017-09-23T05:05:16.836Z,12.80
2017-09-23T05:07:44.599Z,13.53
2017-09-23T05:10:12.121Z,13.70
2017-09-23T05:12:39.804Z,13.70
2017-09-23T05:15:07.314Z,13.47
2017-09-23T05:17:35.045Z,13.87
2017-09-23T05:20:02.601Z,13.70
2017-09-23T05:22:30.228Z,15.33
2017-09-23T05:24:58.032Z,14.73
2017-09-23T05:27:25.796Z,15.17
2017-09-23T05:29:53.557Z,14.00
2017-09-23T05:32:21.339Z,15.50
2017-09-23T05:34:48.822Z,15.33
2017-09-23T05:37:16.336Z,15.70
2017-09-23T05:39:44.004Z,15.53
2017-09-23T05:42:11.756Z,16.50
2017-09-23T05:44:39.268Z,16.17
2017-09-23T05:47:06.961Z,16.10
2017-09-23T05:49:34.743Z,16.30
2017-09-23T05:52:02.280Z,15.50
2017-09-23T05:54:29.961Z,16.53
2017-09-23T05:56:57.480Z,14.97
2017-09-23T05:59:25.162Z,17.80
2017-09-23T06:01:52.677Z,16.50
2017-09-23T06:04:20.404Z,17.17
2017-09-23T06:06:48.172Z,15.90
2017-09-23T06:09:15.927Z,15.10
2017-09-23T06:11:43.731Z,15.33
2017-09-23T06:14:11.227Z,15.83
2017-09-23T06:16:38.892Z,15.30
2017-09-23T06:19:06.688Z,15.70
2017-09-23T06:21:34.439Z,17.00
2017-09-23T06:24:02.206Z,16.10
2017-09-23T06:26:29.733Z,16.87
2017-09-23T06:28:57.244Z,16.00
2017-09-23T06:31:24.751Z,17.20
2017-09-23T06:33:52.338Z,16.23
2017-09-23T06:36:20.111Z,16.87
2017-09-23T06:38:47.862Z,16.60
2017-09-23T06:41:15.388Z,16.73
2017-09-23T06:43:42.895Z,16.37
2017-09-23T06:46:10.519Z,16.00
2017-09-23T06:48:38.036Z,15.90
2017-09-23T06:51:05.667Z,16.57
2017-09-23T06:53:33.216Z,17.00
2017-09-23T06:56:00.979Z,18.13
2017-09-23T06:58:28.510Z,18.37
2017-09-23T07:00:56.016Z,17.60
2017-09-23T07:03:23.539Z,18.17
2017-09-23T07:05:51.112Z,18.80
2017-09-23T07:08:18.635Z,16.87
2017-09-23T07:10:46.336Z,19.60
2017-09-23T07:13:13.856Z,17.43
2017-09-23T07:15:41.528Z,19.33
2017-09-23T07:18:09.044Z,17.77
2017-09-23T07:20:36.780Z,18.60
2017-09-23T07:23:04.279Z,17.30
2017-09-23T07:25:31.791Z,17.90
2017-09-23T07:27:59.310Z,17.87
2017-09-23T07:30:26.824Z,19.63
2017-09-23T07:32:54.359Z,18.67
2017-09-23T07:35:21.899Z,20.70
2017-09-23T07:37:49.423Z,20.10
2017-09-23T07:40:17.693Z,20.70
2017-09-23T07:42:45.204Z,19.97
2017-09-23T07:45:12.868Z,20.80
2017-09-23T07:47:40.635Z,19.57
2017-09-23T07:50:08.138Z,18.63
2017-09-23T07:52:35.824Z,19.50
2017-09-23T07:55:03.341Z,18.97
2017-09-23T07:57:30.844Z,20.07
2017-09-23T07:59:58.494Z,21.17
2017-09-23T08:02:26.125Z,19.73
2017-09-23T08:04:54.400Z,19.43
2017-09-23T08:07:22.131Z,20.90
2017-09-23T08:09:49.897Z,21.47
2017-09-23T08:12:17.425Z,20.20
2017-09-23T08:14:44.924Z,19.93
2017-09-23T08:17:12.455Z,22.53
2017-09-23T08:19:39.983Z,74.83
2017-09-23T08:22:07.809Z,29.10
2017-09-23T08:24:35.429Z,23.47
2017-09-23T08:27:03.049Z,21.70
2017-09-23T08:29:30.657Z,22.57
2017-09-23T08:31:58.164Z,24.37
2017-09-23T08:34:25.680Z,24.23
2017-09-23T08:36:53.455Z,24.77
2017-09-23T08:39:21.004Z,23.83
2017-09-23T08:41:48.508Z,24.77
2017-09-23T08:44:16.807Z,23.00
2017-09-23T08:46:44.321Z,23.83
2017-09-23T08:49:11.844Z,23.27
2017-09-23T08:51:39.420Z,24.23
2017-09-23T08:54:07.759Z,24.77
2017-09-23T08:56:35.276Z,26.20
2017-09-23T08:59:03.324Z,25.10
2017-09-23T09:01:30.841Z,23.80
2017-09-23T09:03:58.447Z,25.10
2017-09-23T09:06:25.958Z,27.00
2017-09-23T09:08:53.472Z,25.43
2017-09-23T09:11:20.993Z,26.20
2017-09-23T09:13:48.490Z,27.67
2017-09-23T09:16:16.124Z,26.50
2017-09-23T09:18:43.649Z,27.30
2017-09-23T09:21:12.284Z,27.37
2017-09-23T09:23:40.037Z,28.10
2017-09-23T09:26:07.810Z,26.53
2017-09-23T09:28:35.318Z,26.30
2017-09-23T09:31:02.858Z,25.50
2017-09-23T09:33:31.123Z,26.53
2017-09-23T09:35:58.836Z,27.60
2017-09-23T09:38:26.348Z,25.53
2017-09-23T09:40:53.871Z,23.67
2017-09-23T09:43:21.373Z,24.70
2017-09-23T09:45:49.760Z,21.20
2017-09-23T09:48:17.549Z,21.40
2017-09-23T09:50:45.040Z,21.30
2017-09-23T09:53:12.604Z,19.80
2017-09-23T09:55:40.127Z,20.07
2017-09-23T09:58:07.668Z,23.97
2017-09-23T10:00:35.235Z,19.33
2017-09-23T10:03:03.029Z,17.10
2017-09-23T10:05:30.788Z,17.50
2017-09-23T10:07:58.317Z,17.23
2017-09-23T10:10:25.846Z,16.10
2017-09-23T10:12:54.128Z,14.97
2017-09-23T10:15:21.636Z,15.60
2017-09-23T10:17:49.303Z,14.63
2017-09-23T10:20:16.812Z,14.30
2017-09-23T10:22:44.528Z,13.33
2017-09-23T10:25:12.037Z,14.50
2017-09-23T10:27:39.702Z,14.57
2017-09-23T10:30:07.507Z,14.63
2017-09-23T10:32:35.027Z,14.50
2017-09-23T10:35:02.700Z,13.17
2017-09-23T10:37:30.215Z,14.20
2017-09-23T10:39:57.733Z,12.63
2017-09-23T10:42:25.356Z,10.87
2017-09-23T10:44:52.871Z,12.83
2017-09-23T10:47:20.383Z,11.50
2017-09-23T10:49:48.057Z,12.80
2017-09-23T10:52:15.564Z,11.40
2017-09-23T10:54:43.479Z,10.20
2017-09-23T10:57:12.168Z,10.37
2017-09-23T10:59:39.751Z,31.33
2017-09-23T11:02:07.281Z,14.80
2017-09-23T11:04:34.780Z,10.10
2017-09-23T11:07:02.437Z,10.17
2017-09-23T11:09:29.944Z,9.03
2017-09-23T11:11:57.647Z,11.70
2017-09-23T11:14:25.152Z,13.30
2017-09-23T11:16:52.673Z,10.83
2017-09-23T11:19:20.420Z,10.10
2017-09-23T11:21:47.936Z,12.97
2017-09-23T11:24:15.448Z,11.60
2017-09-23T11:26:42.977Z,11.00
2017-09-23T11:29:10.910Z,11.07
2017-09-23T11:31:38.523Z,9.93
2017-09-23T11:34:06.283Z,9.80
2017-09-23T11:36:34.055Z,11.20
2017-09-23T11:39:01.559Z,12.60
2017-09-23T11:41:29.584Z,11.77
2017-09-23T11:43:57.304Z,13.43
2017-09-23T11:46:25.027Z,14.80
2017-09-23T11:48:52.563Z,16.43
2017-09-23T11:51:20.082Z,12.33
2017-09-23T11:53:47.656Z,14.57
2017-09-23T11:56:15.163Z,12.30
2017-09-23T11:58:42.683Z,11.53
2017-09-23T12:01:10.231Z,14.33
2017-09-23T12:03:37.896Z,17.43
2017-09-23T12:06:05.422Z,12.20
2017-09-23T12:08:33.135Z,11.47
2017-09-23T12:11:00.653Z,12.00
2017-09-23T12:13:28.164Z,10.60
2017-09-23T12:15:55.677Z,9.70
2017-09-23T12:18:23.246Z,9.60
2017-09-23T12:20:51.034Z,23.30
2017-09-23T12:23:18.544Z,14.00
2017-09-23T12:25:46.228Z,11.40
2017-09-23T12:28:14.016Z,9.70
2017-09-23T12:30:41.542Z,11.97
2017-09-23T12:33:09.213Z,10.73
2017-09-23T12:35:36.731Z,14.40
2017-09-23T12:38:04.456Z,10.30
2017-09-23T12:40:31.993Z,20.10
2017-09-23T12:42:59.684Z,10.10
2017-09-23T12:45:27.195Z,10.13
2017-09-23T12:47:54.699Z,8.87
2017-09-23T12:50:23.079Z,11.00
2017-09-23T12:52:50.607Z,10.07
2017-09-23T12:55:18.100Z,9.10
2017-09-23T12:57:45.621Z,8.53
2017-09-23T13:00:13.344Z,8.73
2017-09-23T13:02:40.865Z,8.97
2017-09-23T13:05:08.379Z,9.70
2017-09-23T13:07:36.093Z,9.20
2017-09-23T13:10:03.847Z,8.53
2017-09-23T13:12:31.616Z,10.03
2017-09-23T13:14:59.391Z,13.27
2017-09-23T13:17:26.908Z,13.40
2017-09-23T13:19:54.600Z,14.47
2017-09-23T13:22:22.129Z,11.60
2017-09-23T13:24:49.811Z,11.50
2017-09-23T13:27:18.157Z,13.03
2017-09-23T13:29:45.660Z,11.83
2017-09-23T13:32:13.200Z,12.70
2017-09-23T13:34:40.873Z,10.30
2017-09-23T13:37:08.385Z,12.07
2017-09-23T13:39:36.065Z,12.60
2017-09-23T13:42:03.566Z,14.70
2017-09-23T13:44:31.080Z,12.30
2017-09-23T13:46:58.909Z,12.40
2017-09-23T13:49:27.182Z,15.43
2017-09-23T13:51:55.613Z,10.67
2017-09-23T13:54:23.130Z,9.37
2017-09-23T13:56:51.414Z,10.87
2017-09-23T13:59:18.940Z,10.77
2017-09-23T14:01:46.449Z,10.60
2017-09-23T14:04:14.044Z,9.43
2017-09-23T14:06:41.556Z,9.53
2017-09-23T14:09:09.645Z,10.53
2017-09-23T14:11:37.208Z,13.13
2017-09-23T14:14:04.784Z,10.50
2017-09-23T14:16:32.495Z,12.07
2017-09-23T14:19:00.014Z,13.17
2017-09-23T14:21:27.534Z,15.23
2017-09-23T14:23:55.214Z,16.83
2017-09-23T14:26:22.736Z,12.07
2017-09-23T14:28:50.415Z,12.80
2017-09-23T14:48:35.908Z,14.53
2017-09-23T14:51:03.542Z,12.90
2017-09-23T14:53:31.048Z,14.43
2017-09-23T14:55:58.613Z,14.87
2017-09-23T14:58:26.373Z,13.10
2017-09-23T15:00:54.132Z,14.50
2017-09-23T15:03:22.334Z,15.07
2017-09-23T15:05:50.272Z,16.10
2017-09-23T15:08:17.788Z,14.30
2017-09-23T15:10:45.465Z,14.00
2017-09-23T15:13:12.985Z,14.80
2017-09-23T15:15:40.484Z,17.20
2017-09-23T15:18:07.992Z,15.53
2017-09-23T15:20:35.629Z,15.63
2017-09-23T15:23:03.147Z,15.40
2017-09-23T15:25:30.657Z,15.80
2017-09-23T15:27:58.171Z,15.90
2017-09-23T15:30:25.838Z,14.07
2017-09-23T15:32:53.408Z,14.70
2017-09-23T15:35:20.916Z,16.90
2017-09-23T15:37:48.745Z,13.30
2017-09-23T15:40:16.261Z,13.87
2017-09-23T15:42:43.813Z,12.33
2017-09-23T15:45:12.087Z,12.20
2017-09-23T15:47:39.595Z,11.70
2017-09-23T15:50:07.168Z,11.50
2017-09-23T15:52:34.682Z,11.40
2017-09-23T15:55:02.607Z,12.80
2017-09-23T15:57:30.168Z,10.33
2017-09-23T15:59:57.696Z,12.10
2017-09-23T16:02:25.229Z,12.47
2017-09-23T16:04:52.744Z,13.67
2017-09-23T16:07:21.167Z,11.27
2017-09-23T16:09:48.668Z,11.90
2017-09-23T16:12:16.176Z,10.70
2017-09-23T16:14:43.728Z,9.70
2017-09-23T16:17:11.436Z,9.70
2017-09-23T16:19:38.943Z,10.40
2017-09-23T16:22:06.455Z,9.70
2017-09-23T16:24:34.089Z,12.13
2017-09-23T16:27:01.593Z,8.70
2017-09-23T16:29:29.320Z,8.23
2017-09-23T16:31:56.823Z,10.27
2017-09-23T16:34:24.558Z,10.27
2017-09-23T16:36:52.080Z,8.20
2017-09-23T16:39:19.593Z,12.70
2017-09-23T16:41:47.104Z,10.97
2017-09-23T16:44:14.676Z,8.97
2017-09-23T16:46:42.211Z,8.20
2017-09-23T16:49:09.895Z,7.90
2017-09-23T16:51:37.632Z,8.17
2017-09-23T16:54:05.301Z,8.03
2017-09-23T16:56:32.809Z,8.80
2017-09-23T16:59:00.310Z,8.37
2017-09-23T17:01:28.107Z,7.70
2017-09-23T17:03:55.628Z,8.10
2017-09-23T17:06:23.148Z,12.23
2017-09-23T17:08:50.648Z,8.80
2017-09-23T17:11:18.232Z,9.00
2017-09-23T17:13:46.009Z,8.83
2017-09-23T17:16:13.544Z,12.93
2017-09-23T17:18:41.052Z,9.20
2017-09-23T17:21:09.344Z,8.93
2017-09-23T17:23:36.852Z,10.80
2017-09-23T17:26:04.515Z,9.40
2017-09-23T17:28:32.024Z,8.67
2017-09-23T17:30:59.572Z,9.40
2017-09-23T17:33:28.720Z,11.40
2017-09-23T17:35:56.223Z,13.10
2017-09-23T17:38:23.839Z,11.20
2017-09-23T17:40:51.350Z,13.13
2017-09-23T17:43:18.876Z,12.77
2017-09-23T17:45:46.589Z,13.50
2017-09-23T17:48:14.385Z,12.50
2017-09-23T17:50:41.909Z,13.50
2017-09-23T17:53:09.412Z,14.53
2017-09-23T17:55:37.026Z,12.53
2017-09-23T17:58:04.831Z,13.00
2017-09-23T18:00:32.580Z,14.30
2017-09-23T18:03:00.353Z,14.47
2017-09-23T18:05:28.250Z,13.80
2017-09-23T18:07:56.529Z,16.13
2017-09-23T18:10:24.295Z,16.57
2017-09-23T18:12:51.803Z,20.80
2017-09-23T18:15:19.324Z,15.73
2017-09-23T18:17:47.582Z,23.57
2017-09-23T18:20:15.268Z,19.83
2017-09-23T18:22:48.752Z,27.33
2017-09-23T18:25:17.213Z,18.80
2017-09-23T18:27:44.711Z,16.43
2017-09-23T18:30:12.379Z,16.37
2017-09-23T18:32:39.960Z,12.43
2017-09-23T18:35:07.571Z,24.03
2017-09-23T18:37:36.024Z,17.00
2017-09-23T18:40:03.638Z,19.47
2017-09-23T18:42:31.133Z,17.90
2017-09-23T18:44:58.648Z,20.10
2017-09-23T18:47:26.145Z,22.07
2017-09-23T18:49:53.692Z,17.30
2017-09-23T18:52:21.817Z,16.23
2017-09-23T18:54:49.354Z,16.67
2017-09-23T18:57:16.856Z,16.33
2017-09-23T18:59:44.370Z,16.63
2017-09-23T19:02:11.900Z,16.87
2017-09-23T19:04:39.435Z,16.27
2017-09-23T19:07:07.461Z,15.13
2017-09-23T19:09:35.183Z,13.60
2017-09-23T19:12:02.741Z,16.33
2017-09-23T19:14:30.345Z,16.40
2017-09-23T19:16:58.355Z,15.40
2017-09-23T19:19:25.915Z,13.27
2017-09-23T19:21:54.224Z,14.80
2017-09-23T19:24:21.871Z,12.50
2017-09-23T19:26:49.547Z,13.73
2017-09-23T19:29:17.427Z,13.60
2017-09-23T19:31:44.989Z,16.77
2017-09-23T19:34:12.528Z,18.93
2017-09-23T19:36:40.036Z,23.10
2017-09-23T19:39:07.544Z,13.73
2017-09-23T19:41:35.067Z,18.50
2017-09-23T19:44:02.664Z,19.80
2017-09-23T19:46:30.289Z,12.53
2017-09-23T19:48:58.224Z,13.83
2017-09-23T19:51:26.152Z,12.77
2017-09-23T19:53:54.093Z,14.67
2017-09-23T19:56:22.134Z,16.77
2017-09-23T19:58:49.641Z,12.53
2017-09-23T20:01:17.293Z,13.13
2017-09-23T20:03:46.004Z,12.90
2017-09-23T20:06:14.865Z,11.20
2017-09-23T20:08:42.390Z,12.40
2017-09-23T20:11:09.900Z,11.70
2017-09-23T20:13:37.652Z,11.80
2017-09-23T20:16:05.939Z,12.20
2017-09-23T20:18:34.033Z,12.10
2017-09-23T20:21:01.534Z,13.10
2017-09-23T20:23:29.458Z,14.07
2017-09-23T20:25:56.964Z,13.63
2017-09-23T20:28:24.489Z,14.77
2017-09-23T20:30:52.000Z,15.33
2017-09-23T20:33:19.515Z,14.03
2017-09-23T20:35:47.220Z,15.70
2017-09-23T20:38:14.987Z,15.33
2017-09-23T20:40:43.936Z,15.33
2017-09-23T20:43:18.112Z,15.53
2017-09-23T20:45:45.664Z,16.43
2017-09-23T20:48:14.463Z,16.80
2017-09-23T20:50:41.973Z,14.97
2017-09-23T20:53:10.630Z,14.70
2017-09-23T20:55:38.944Z,16.03
2017-09-23T20:58:06.596Z,17.53
2017-09-23T21:00:34.382Z,18.47
2017-09-23T21:03:01.884Z,19.50
2017-09-23T21:05:29.617Z,19.67
2017-09-23T21:07:57.367Z,19.13
2017-09-23T21:10:25.133Z,20.10
2017-09-23T21:12:52.903Z,19.60
2017-09-23T21:15:20.427Z,19.30
2017-09-23T21:17:47.932Z,20.00
2017-09-23T21:20:16.172Z,18.00
2017-09-23T21:22:44.028Z,18.13
2017-09-23T21:25:11.934Z,19.43
2017-09-23T21:27:40.366Z,18.87
2017-09-23T21:30:07.988Z,20.37
2017-09-23T21:32:36.272Z,21.73
2017-09-23T21:35:03.994Z,26.97
2017-09-23T21:37:31.502Z,30.40
2017-09-23T21:39:59.021Z,26.27
2017-09-23T21:42:26.668Z,25.07
2017-09-23T21:44:55.234Z,26.43
2017-09-23T21:47:23.555Z,23.27
2017-09-23T21:49:51.089Z,21.30
2017-09-23T21:52:18.652Z,22.60
2017-09-23T21:54:46.158Z,22.80
2017-09-23T21:57:14.181Z,23.20
2017-09-23T21:59:42.005Z,24.60
2017-09-23T22:02:09.503Z,24.83
2017-09-23T22:04:37.138Z,24.07
2017-09-23T22:07:04.920Z,22.97
2017-09-23T22:09:32.453Z,23.60
2017-09-23T22:12:00.148Z,24.50
2017-09-23T22:14:27.657Z,24.23
2017-09-23T22:16:55.167Z,23.07
2017-09-23T22:19:22.693Z,23.73
2017-09-23T22:21:50.239Z,24.00
2017-09-23T22:24:17.756Z,24.90
2017-09-23T22:26:45.276Z,23.20
2017-09-23T22:29:12.947Z,25.50
2017-09-23T22:31:40.464Z,25.30
2017-09-23T22:34:07.973Z,25.67
2017-09-23T22:36:35.627Z,24.33
2017-09-23T22:39:03.189Z,24.20
2017-09-23T22:41:30.701Z,22.57
2017-09-23T22:43:58.436Z,23.50
2017-09-23T22:46:26.073Z,24.17
2017-09-23T22:48:54.676Z,24.20
2017-09-23T22:51:23.132Z,22.13
2017-09-23T22:53:50.652Z,21.17
2017-09-23T22:56:18.329Z,22.23
2017-09-23T22:58:46.112Z,22.50
2017-09-23T23:01:13.627Z,23.53
2017-09-23T23:03:42.603Z,22.23
2017-09-23T23:06:10.271Z,24.30
2017-09-23T23:08:37.933Z,23.10
2017-09-23T23:11:06.200Z,23.57
2017-09-23T23:13:33.927Z,27.27
2017-09-23T23:16:01.427Z,23.40
2017-09-23T23:18:28.965Z,23.10
2017-09-23T23:20:56.472Z,23.33
2017-09-23T23:23:23.992Z,25.50
2017-09-23T23:25:52.431Z,26.20
2017-09-23T23:28:19.948Z,25.60
2017-09-23T23:30:47.470Z,29.73
2017-09-23T23:33:15.804Z,28.47
2017-09-23T23:35:43.308Z,26.07
2017-09-23T23:38:10.921Z,34.20
2017-09-23T23:40:38.713Z,27.80
2017-09-23T23:43:06.224Z,26.60
2017-09-23T23:45:33.748Z,26.67
2017-09-23T23:48:01.364Z,27.27
2017-09-23T23:50:29.169Z,27.00
2017-09-23T23:52:56.661Z,26.50
2017-09-23T23:55:24.352Z,27.77
2017-09-23T23:57:51.852Z,25.27
